sensor_id;sensor_type;location;lat;lon;timestamp;P1;durP1;ratioP1;P2;durP2;ratioP2
12770;SDS011;6449;47.666;9.160;2024-03-08T00:05:02;26.97;;;16.20;;
12770;SDS011;6449;47.666;9.160;2024-03-08T00:10:00;28.53;;;16.40;;
12770;SDS011;6449;47.666;9.160;2024-03-08T00:14:53;25.87;;;15.37;;
12770;SDS011;6449;47.666;9.160;2024-03-08T00:19:47;28.23;;;16.93;;
12770;SDS011;6449;47.666;9.160;2024-03-08T00:24:42;25.87;;;16.13;;
12770;SDS011;6449;47.666;9.160;2024-03-08T00:29:36;27.20;;;15.00;;
12770;SDS011;6449;47.666;9.160;2024-03-08T00:34:31;29.57;;;16.87;;
12770;SDS011;6449;47.666;9.160;2024-03-08T00:39:26;27.37;;;15.47;;
12770;SDS011;6449;47.666;9.160;2024-03-08T00:44:20;23.97;;;14.80;;
12770;SDS011;6449;47.666;9.160;2024-03-08T00:49:14;26.17;;;14.07;;
12770;SDS011;6449;47.666;9.160;2024-03-08T00:54:08;23.30;;;13.77;;
12770;SDS011;6449;47.666;9.160;2024-03-08T00:59:02;22.53;;;13.30;;
12770;SDS011;6449;47.666;9.160;2024-03-08T01:03:56;23.93;;;13.43;;
12770;SDS011;6449;47.666;9.160;2024-03-08T01:08:50;20.47;;;13.40;;
12770;SDS011;6449;47.666;9.160;2024-03-08T01:13:44;22.33;;;13.50;;
12770;SDS011;6449;47.666;9.160;2024-03-08T01:18:38;23.40;;;12.87;;
12770;SDS011;6449;47.666;9.160;2024-03-08T01:23:33;22.33;;;12.97;;
12770;SDS011;6449;47.666;9.160;2024-03-08T01:28:27;22.67;;;13.47;;
12770;SDS011;6449;47.666;9.160;2024-03-08T01:33:20;22.33;;;12.93;;
12770;SDS011;6449;47.666;9.160;2024-03-08T01:38:15;20.43;;;12.50;;
12770;SDS011;6449;47.666;9.160;2024-03-08T01:43:17;23.97;;;13.53;;
12770;SDS011;6449;47.666;9.160;2024-03-08T01:48:12;22.97;;;12.73;;
12770;SDS011;6449;47.666;9.160;2024-03-08T01:53:08;22.70;;;12.60;;
12770;SDS011;6449;47.666;9.160;2024-03-08T01:58:03;21.83;;;12.27;;
12770;SDS011;6449;47.666;9.160;2024-03-08T02:03:00;22.10;;;12.30;;
12770;SDS011;6449;47.666;9.160;2024-03-08T02:07:54;19.20;;;12.13;;
12770;SDS011;6449;47.666;9.160;2024-03-08T02:12:48;20.63;;;11.77;;
12770;SDS011;6449;47.666;9.160;2024-03-08T02:17:42;19.90;;;11.60;;
12770;SDS011;6449;47.666;9.160;2024-03-08T02:22:37;18.67;;;11.50;;
12770;SDS011;6449;47.666;9.160;2024-03-08T02:27:31;20.93;;;13.13;;
12770;SDS011;6449;47.666;9.160;2024-03-08T02:32:24;19.07;;;11.53;;
12770;SDS011;6449;47.666;9.160;2024-03-08T02:37:18;20.00;;;12.27;;
12770;SDS011;6449;47.666;9.160;2024-03-08T02:42:13;18.73;;;11.77;;
12770;SDS011;6449;47.666;9.160;2024-03-08T02:47:07;18.63;;;11.73;;
12770;SDS011;6449;47.666;9.160;2024-03-08T02:52:03;20.63;;;11.43;;
12770;SDS011;6449;47.666;9.160;2024-03-08T02:56:56;18.07;;;11.60;;
12770;SDS011;6449;47.666;9.160;2024-03-08T03:01:51;21.17;;;11.50;;
12770;SDS011;6449;47.666;9.160;2024-03-08T03:06:45;23.30;;;12.20;;
12770;SDS011;6449;47.666;9.160;2024-03-08T03:11:38;21.67;;;12.23;;
12770;SDS011;6449;47.666;9.160;2024-03-08T03:16:32;20.10;;;12.37;;
12770;SDS011;6449;47.666;9.160;2024-03-08T03:21:29;25.93;;;12.40;;
12770;SDS011;6449;47.666;9.160;2024-03-08T03:26:23;20.17;;;11.93;;
12770;SDS011;6449;47.666;9.160;2024-03-08T03:31:17;25.43;;;13.13;;
12770;SDS011;6449;47.666;9.160;2024-03-08T03:36:11;21.23;;;12.20;;
12770;SDS011;6449;47.666;9.160;2024-03-08T03:41:07;19.97;;;11.93;;
12770;SDS011;6449;47.666;9.160;2024-03-08T03:46:02;21.27;;;12.90;;
12770;SDS011;6449;47.666;9.160;2024-03-08T03:50:59;20.83;;;12.73;;
12770;SDS011;6449;47.666;9.160;2024-03-08T03:55:52;22.13;;;13.40;;
12770;SDS011;6449;47.666;9.160;2024-03-08T04:00:47;22.90;;;13.60;;
12770;SDS011;6449;47.666;9.160;2024-03-08T04:05:41;24.53;;;12.87;;
12770;SDS011;6449;47.666;9.160;2024-03-08T04:10:34;20.77;;;12.00;;
12770;SDS011;6449;47.666;9.160;2024-03-08T04:15:28;23.53;;;13.47;;
12770;SDS011;6449;47.666;9.160;2024-03-08T04:20:23;22.17;;;13.10;;
12770;SDS011;6449;47.666;9.160;2024-03-08T04:25:16;24.63;;;13.73;;
12770;SDS011;6449;47.666;9.160;2024-03-08T04:30:11;21.47;;;12.53;;
12770;SDS011;6449;47.666;9.160;2024-03-08T04:35:05;24.03;;;13.43;;
12770;SDS011;6449;47.666;9.160;2024-03-08T04:40:01;26.33;;;13.07;;
12770;SDS011;6449;47.666;9.160;2024-03-08T04:44:55;23.30;;;12.97;;
12770;SDS011;6449;47.666;9.160;2024-03-08T04:49:49;21.47;;;13.33;;
12770;SDS011;6449;47.666;9.160;2024-03-08T04:54:43;23.87;;;14.20;;
12770;SDS011;6449;47.666;9.160;2024-03-08T04:59:38;22.37;;;12.63;;
12770;SDS011;6449;47.666;9.160;2024-03-08T05:04:32;27.83;;;13.77;;
12770;SDS011;6449;47.666;9.160;2024-03-08T05:09:25;22.80;;;13.40;;
12770;SDS011;6449;47.666;9.160;2024-03-08T05:14:23;22.43;;;12.87;;
12770;SDS011;6449;47.666;9.160;2024-03-08T05:19:20;24.00;;;12.87;;
12770;SDS011;6449;47.666;9.160;2024-03-08T05:24:13;25.53;;;14.67;;
12770;SDS011;6449;47.666;9.160;2024-03-08T05:29:09;20.30;;;12.73;;
12770;SDS011;6449;47.666;9.160;2024-03-08T05:34:04;21.23;;;13.27;;
12770;SDS011;6449;47.666;9.160;2024-03-08T05:39:02;22.37;;;13.57;;
12770;SDS011;6449;47.666;9.160;2024-03-08T05:43:57;23.43;;;13.50;;
12770;SDS011;6449;47.666;9.160;2024-03-08T05:48:51;24.00;;;14.17;;
12770;SDS011;6449;47.666;9.160;2024-03-08T05:53:46;23.40;;;13.20;;
12770;SDS011;6449;47.666;9.160;2024-03-08T05:58:41;21.70;;;13.47;;
12770;SDS011;6449;47.666;9.160;2024-03-08T06:03:34;20.70;;;12.70;;
12770;SDS011;6449;47.666;9.160;2024-03-08T06:08:27;23.63;;;14.20;;
12770;SDS011;6449;47.666;9.160;2024-03-08T06:13:21;23.50;;;14.33;;
12770;SDS011;6449;47.666;9.160;2024-03-08T06:18:19;24.03;;;14.63;;
12770;SDS011;6449;47.666;9.160;2024-03-08T06:23:12;25.60;;;15.13;;
12770;SDS011;6449;47.666;9.160;2024-03-08T06:28:09;25.43;;;14.70;;
12770;SDS011;6449;47.666;9.160;2024-03-08T06:33:03;27.10;;;15.23;;
12770;SDS011;6449;47.666;9.160;2024-03-08T06:38:01;21.93;;;13.60;;
12770;SDS011;6449;47.666;9.160;2024-03-08T06:42:54;23.20;;;13.87;;
12770;SDS011;6449;47.666;9.160;2024-03-08T06:47:48;28.40;;;14.47;;
12770;SDS011;6449;47.666;9.160;2024-03-08T06:52:41;27.30;;;14.47;;
12770;SDS011;6449;47.666;9.160;2024-03-08T06:57:37;26.93;;;13.83;;
12770;SDS011;6449;47.666;9.160;2024-03-08T07:02:31;22.70;;;12.83;;
12770;SDS011;6449;47.666;9.160;2024-03-08T07:07:26;28.43;;;14.80;;
12770;SDS011;6449;47.666;9.160;2024-03-08T07:12:24;22.93;;;13.07;;
12770;SDS011;6449;47.666;9.160;2024-03-08T07:17:19;25.20;;;14.33;;
12770;SDS011;6449;47.666;9.160;2024-03-08T07:22:13;23.63;;;12.70;;
12770;SDS011;6449;47.666;9.160;2024-03-08T07:27:07;23.60;;;13.30;;
12770;SDS011;6449;47.666;9.160;2024-03-08T07:32:00;24.57;;;13.30;;
12770;SDS011;6449;47.666;9.160;2024-03-08T07:37:05;20.90;;;12.43;;
12770;SDS011;6449;47.666;9.160;2024-03-08T07:42:02;24.87;;;13.27;;
12770;SDS011;6449;47.666;9.160;2024-03-08T07:46:56;20.27;;;12.83;;
12770;SDS011;6449;47.666;9.160;2024-03-08T07:51:50;18.93;;;11.23;;
12770;SDS011;6449;47.666;9.160;2024-03-08T07:56:45;23.47;;;13.23;;
12770;SDS011;6449;47.666;9.160;2024-03-08T08:01:40;20.77;;;12.10;;
12770;SDS011;6449;47.666;9.160;2024-03-08T08:06:40;19.23;;;12.07;;
12770;SDS011;6449;47.666;9.160;2024-03-08T08:11:36;23.03;;;12.90;;
12770;SDS011;6449;47.666;9.160;2024-03-08T08:16:31;25.57;;;13.53;;
12770;SDS011;6449;47.666;9.160;2024-03-08T08:21:25;22.63;;;12.83;;
12770;SDS011;6449;47.666;9.160;2024-03-08T08:26:18;21.87;;;12.53;;
12770;SDS011;6449;47.666;9.160;2024-03-08T08:31:13;22.70;;;12.50;;
12770;SDS011;6449;47.666;9.160;2024-03-08T08:36:08;22.37;;;12.80;;
12770;SDS011;6449;47.666;9.160;2024-03-08T08:41:01;27.30;;;13.93;;
12770;SDS011;6449;47.666;9.160;2024-03-08T08:45:57;23.17;;;13.10;;
12770;SDS011;6449;47.666;9.160;2024-03-08T08:50:51;24.63;;;13.80;;
12770;SDS011;6449;47.666;9.160;2024-03-08T08:55:46;22.77;;;13.30;;
12770;SDS011;6449;47.666;9.160;2024-03-08T09:00:39;22.30;;;13.13;;
12770;SDS011;6449;47.666;9.160;2024-03-08T09:05:33;23.03;;;12.30;;
12770;SDS011;6449;47.666;9.160;2024-03-08T09:10:31;24.13;;;12.67;;
12770;SDS011;6449;47.666;9.160;2024-03-08T09:15:26;26.43;;;12.20;;
12770;SDS011;6449;47.666;9.160;2024-03-08T09:20:21;18.80;;;10.50;;
12770;SDS011;6449;47.666;9.160;2024-03-08T09:25:14;19.93;;;12.03;;
12770;SDS011;6449;47.666;9.160;2024-03-08T09:30:08;19.67;;;11.27;;
12770;SDS011;6449;47.666;9.160;2024-03-08T09:35:06;18.67;;;11.03;;
12770;SDS011;6449;47.666;9.160;2024-03-08T09:40:00;21.77;;;12.87;;
12770;SDS011;6449;47.666;9.160;2024-03-08T09:44:56;21.27;;;11.23;;
12770;SDS011;6449;47.666;9.160;2024-03-08T09:49:51;18.17;;;11.60;;
12770;SDS011;6449;47.666;9.160;2024-03-08T09:54:51;17.53;;;10.40;;
12770;SDS011;6449;47.666;9.160;2024-03-08T09:59:44;20.13;;;11.23;;
12770;SDS011;6449;47.666;9.160;2024-03-08T10:04:39;17.77;;;10.27;;
12770;SDS011;6449;47.666;9.160;2024-03-08T10:09:38;20.10;;;11.13;;
12770;SDS011;6449;47.666;9.160;2024-03-08T10:14:34;17.50;;;9.43;;
12770;SDS011;6449;47.666;9.160;2024-03-08T10:19:32;17.67;;;10.50;;
12770;SDS011;6449;47.666;9.160;2024-03-08T10:24:25;18.87;;;11.00;;
12770;SDS011;6449;47.666;9.160;2024-03-08T10:29:19;17.80;;;9.90;;
12770;SDS011;6449;47.666;9.160;2024-03-08T10:34:14;18.27;;;10.13;;
12770;SDS011;6449;47.666;9.160;2024-03-08T10:39:10;17.23;;;10.67;;
12770;SDS011;6449;47.666;9.160;2024-03-08T10:44:17;18.30;;;10.87;;
12770;SDS011;6449;47.666;9.160;2024-03-08T10:49:38;15.43;;;10.33;;
12770;SDS011;6449;47.666;9.160;2024-03-08T10:54:43;18.50;;;10.60;;
12770;SDS011;6449;47.666;9.160;2024-03-08T10:59:40;17.77;;;11.70;;
12770;SDS011;6449;47.666;9.160;2024-03-08T11:04:38;17.13;;;10.37;;
12770;SDS011;6449;47.666;9.160;2024-03-08T11:09:33;19.77;;;11.27;;
12770;SDS011;6449;47.666;9.160;2024-03-08T11:14:43;16.70;;;9.80;;
12770;SDS011;6449;47.666;9.160;2024-03-08T11:19:44;23.13;;;11.53;;
12770;SDS011;6449;47.666;9.160;2024-03-08T11:24:40;19.57;;;13.07;;
12770;SDS011;6449;47.666;9.160;2024-03-08T11:29:36;16.57;;;10.07;;
12770;SDS011;6449;47.666;9.160;2024-03-08T11:34:32;17.03;;;9.30;;
12770;SDS011;6449;47.666;9.160;2024-03-08T11:39:27;15.50;;;9.47;;
12770;SDS011;6449;47.666;9.160;2024-03-08T11:44:24;15.67;;;9.67;;
12770;SDS011;6449;47.666;9.160;2024-03-08T11:49:23;16.47;;;9.87;;
12770;SDS011;6449;47.666;9.160;2024-03-08T11:54:19;23.77;;;12.70;;
12770;SDS011;6449;47.666;9.160;2024-03-08T11:59:15;17.60;;;10.97;;
12770;SDS011;6449;47.666;9.160;2024-03-08T12:04:11;17.23;;;9.53;;
12770;SDS011;6449;47.666;9.160;2024-03-08T12:09:07;15.60;;;9.37;;
12770;SDS011;6449;47.666;9.160;2024-03-08T12:14:02;17.07;;;9.80;;
12770;SDS011;6449;47.666;9.160;2024-03-08T12:18:59;15.37;;;10.60;;
12770;SDS011;6449;47.666;9.160;2024-03-08T12:24:02;15.60;;;9.40;;
12770;SDS011;6449;47.666;9.160;2024-03-08T12:29:15;18.47;;;10.47;;
12770;SDS011;6449;47.666;9.160;2024-03-08T12:34:13;15.20;;;9.77;;
12770;SDS011;6449;47.666;9.160;2024-03-08T12:39:06;17.20;;;10.07;;
12770;SDS011;6449;47.666;9.160;2024-03-08T12:44:13;15.80;;;9.73;;
12770;SDS011;6449;47.666;9.160;2024-03-08T12:49:10;16.10;;;9.87;;
12770;SDS011;6449;47.666;9.160;2024-03-08T12:54:08;17.53;;;10.57;;
12770;SDS011;6449;47.666;9.160;2024-03-08T12:59:02;14.70;;;9.70;;
12770;SDS011;6449;47.666;9.160;2024-03-08T13:03:57;15.27;;;9.33;;
12770;SDS011;6449;47.666;9.160;2024-03-08T13:09:08;18.80;;;9.70;;
12770;SDS011;6449;47.666;9.160;2024-03-08T13:14:37;14.97;;;9.43;;
12770;SDS011;6449;47.666;9.160;2024-03-08T13:19:33;17.10;;;10.07;;
12770;SDS011;6449;47.666;9.160;2024-03-08T13:24:31;17.37;;;10.40;;
12770;SDS011;6449;47.666;9.160;2024-03-08T13:29:25;18.50;;;9.93;;
12770;SDS011;6449;47.666;9.160;2024-03-08T13:34:18;16.67;;;10.50;;
12770;SDS011;6449;47.666;9.160;2024-03-08T13:39:19;15.90;;;9.80;;
12770;SDS011;6449;47.666;9.160;2024-03-08T13:44:18;16.20;;;10.40;;
12770;SDS011;6449;47.666;9.160;2024-03-08T13:49:13;13.83;;;9.10;;
12770;SDS011;6449;47.666;9.160;2024-03-08T13:54:06;18.07;;;9.90;;
12770;SDS011;6449;47.666;9.160;2024-03-08T13:59:01;14.63;;;9.17;;
12770;SDS011;6449;47.666;9.160;2024-03-08T14:03:56;15.00;;;10.13;;
12770;SDS011;6449;47.666;9.160;2024-03-08T14:08:49;18.57;;;9.47;;
12770;SDS011;6449;47.666;9.160;2024-03-08T14:13:43;16.87;;;9.70;;
12770;SDS011;6449;47.666;9.160;2024-03-08T14:18:37;19.20;;;10.67;;
12770;SDS011;6449;47.666;9.160;2024-03-08T14:23:32;16.63;;;9.67;;
12770;SDS011;6449;47.666;9.160;2024-03-08T14:28:25;16.70;;;10.03;;
12770;SDS011;6449;47.666;9.160;2024-03-08T14:33:20;17.80;;;10.23;;
12770;SDS011;6449;47.666;9.160;2024-03-08T14:38:16;17.77;;;10.33;;
12770;SDS011;6449;47.666;9.160;2024-03-08T14:43:13;18.73;;;10.67;;
12770;SDS011;6449;47.666;9.160;2024-03-08T14:48:08;16.37;;;10.43;;
12770;SDS011;6449;47.666;9.160;2024-03-08T14:53:03;17.07;;;10.83;;
12770;SDS011;6449;47.666;9.160;2024-03-08T14:58:00;15.70;;;9.97;;
12770;SDS011;6449;47.666;9.160;2024-03-08T15:02:56;16.37;;;10.33;;
12770;SDS011;6449;47.666;9.160;2024-03-08T15:07:50;15.20;;;9.63;;
12770;SDS011;6449;47.666;9.160;2024-03-08T15:12:44;17.83;;;10.13;;
12770;SDS011;6449;47.666;9.160;2024-03-08T15:17:42;16.60;;;9.40;;
12770;SDS011;6449;47.666;9.160;2024-03-08T15:22:40;18.87;;;10.20;;
12770;SDS011;6449;47.666;9.160;2024-03-08T15:27:37;18.13;;;10.30;;
12770;SDS011;6449;47.666;9.160;2024-03-08T15:32:43;17.27;;;10.53;;
12770;SDS011;6449;47.666;9.160;2024-03-08T15:37:40;17.20;;;10.63;;
12770;SDS011;6449;47.666;9.160;2024-03-08T15:42:37;18.43;;;10.13;;
12770;SDS011;6449;47.666;9.160;2024-03-08T15:47:31;18.17;;;10.07;;
12770;SDS011;6449;47.666;9.160;2024-03-08T15:52:25;16.00;;;9.73;;
12770;SDS011;6449;47.666;9.160;2024-03-08T15:57:20;16.70;;;9.63;;
12770;SDS011;6449;47.666;9.160;2024-03-08T16:02:26;17.57;;;10.20;;
12770;SDS011;6449;47.666;9.160;2024-03-08T16:07:22;18.40;;;11.30;;
12770;SDS011;6449;47.666;9.160;2024-03-08T16:12:22;21.33;;;12.03;;
12770;SDS011;6449;47.666;9.160;2024-03-08T16:17:16;16.63;;;10.57;;
12770;SDS011;6449;47.666;9.160;2024-03-08T16:22:11;21.07;;;11.63;;
12770;SDS011;6449;47.666;9.160;2024-03-08T16:27:42;15.00;;;9.63;;
12770;SDS011;6449;47.666;9.160;2024-03-08T16:33:42;13.87;;;9.07;;
12770;SDS011;6449;47.666;9.160;2024-03-08T16:38:41;14.40;;;9.23;;
12770;SDS011;6449;47.666;9.160;2024-03-08T16:43:56;18.57;;;10.00;;
12770;SDS011;6449;47.666;9.160;2024-03-08T16:49:00;14.63;;;8.93;;
12770;SDS011;6449;47.666;9.160;2024-03-08T16:54:12;14.33;;;9.37;;
12770;SDS011;6449;47.666;9.160;2024-03-08T16:59:11;16.57;;;8.40;;
12770;SDS011;6449;47.666;9.160;2024-03-08T17:04:04;11.33;;;7.47;;
12770;SDS011;6449;47.666;9.160;2024-03-08T17:08:58;15.97;;;8.90;;
12770;SDS011;6449;47.666;9.160;2024-03-08T17:13:51;14.10;;;9.03;;
12770;SDS011;6449;47.666;9.160;2024-03-08T17:18:48;13.17;;;8.60;;
12770;SDS011;6449;47.666;9.160;2024-03-08T17:23:42;16.17;;;10.13;;
12770;SDS011;6449;47.666;9.160;2024-03-08T17:28:35;15.60;;;10.27;;
12770;SDS011;6449;47.666;9.160;2024-03-08T17:33:33;16.40;;;10.23;;
12770;SDS011;6449;47.666;9.160;2024-03-08T17:38:29;17.57;;;10.30;;
12770;SDS011;6449;47.666;9.160;2024-03-08T17:43:25;15.77;;;10.00;;
12770;SDS011;6449;47.666;9.160;2024-03-08T17:48:19;13.83;;;9.33;;
12770;SDS011;6449;47.666;9.160;2024-03-08T17:53:13;14.10;;;9.80;;
12770;SDS011;6449;47.666;9.160;2024-03-08T17:58:08;15.13;;;9.57;;
12770;SDS011;6449;47.666;9.160;2024-03-08T18:03:02;15.83;;;9.87;;
12770;SDS011;6449;47.666;9.160;2024-03-08T18:08:00;16.23;;;9.87;;
12770;SDS011;6449;47.666;9.160;2024-03-08T18:12:54;16.57;;;10.33;;
12770;SDS011;6449;47.666;9.160;2024-03-08T18:17:51;17.90;;;10.70;;
12770;SDS011;6449;47.666;9.160;2024-03-08T18:22:46;15.60;;;9.33;;
12770;SDS011;6449;47.666;9.160;2024-03-08T18:27:40;19.27;;;11.23;;
12770;SDS011;6449;47.666;9.160;2024-03-08T18:32:35;21.57;;;11.77;;
12770;SDS011;6449;47.666;9.160;2024-03-08T18:37:30;16.07;;;10.30;;
12770;SDS011;6449;47.666;9.160;2024-03-08T18:42:26;18.30;;;11.27;;
12770;SDS011;6449;47.666;9.160;2024-03-08T18:47:20;20.10;;;11.60;;
12770;SDS011;6449;47.666;9.160;2024-03-08T18:52:13;19.70;;;13.43;;
12770;SDS011;6449;47.666;9.160;2024-03-08T18:57:11;18.10;;;11.20;;
12770;SDS011;6449;47.666;9.160;2024-03-08T19:02:11;19.00;;;11.37;;
12770;SDS011;6449;47.666;9.160;2024-03-08T19:07:20;20.63;;;12.53;;
12770;SDS011;6449;47.666;9.160;2024-03-08T19:12:34;26.27;;;15.60;;
12770;SDS011;6449;47.666;9.160;2024-03-08T19:17:27;22.03;;;12.13;;
12770;SDS011;6449;47.666;9.160;2024-03-08T19:22:21;18.80;;;11.23;;
12770;SDS011;6449;47.666;9.160;2024-03-08T19:27:15;18.13;;;11.77;;
12770;SDS011;6449;47.666;9.160;2024-03-08T19:32:11;20.97;;;11.60;;
12770;SDS011;6449;47.666;9.160;2024-03-08T19:37:08;21.60;;;11.20;;
12770;SDS011;6449;47.666;9.160;2024-03-08T19:42:03;15.60;;;10.37;;
12770;SDS011;6449;47.666;9.160;2024-03-08T19:46:57;17.83;;;10.50;;
12770;SDS011;6449;47.666;9.160;2024-03-08T19:51:52;16.93;;;10.80;;
12770;SDS011;6449;47.666;9.160;2024-03-08T19:56:46;18.97;;;10.50;;
12770;SDS011;6449;47.666;9.160;2024-03-08T20:01:40;20.80;;;12.20;;
12770;SDS011;6449;47.666;9.160;2024-03-08T20:06:33;18.43;;;11.20;;
12770;SDS011;6449;47.666;9.160;2024-03-08T20:11:32;18.33;;;11.47;;
12770;SDS011;6449;47.666;9.160;2024-03-08T20:16:26;17.80;;;11.37;;
12770;SDS011;6449;47.666;9.160;2024-03-08T20:21:19;17.27;;;11.13;;
12770;SDS011;6449;47.666;9.160;2024-03-08T20:26:14;16.17;;;10.60;;
12770;SDS011;6449;47.666;9.160;2024-03-08T20:31:09;18.73;;;11.33;;
12770;SDS011;6449;47.666;9.160;2024-03-08T20:36:05;16.77;;;10.80;;
12770;SDS011;6449;47.666;9.160;2024-03-08T20:41:00;20.03;;;11.53;;
12770;SDS011;6449;47.666;9.160;2024-03-08T20:45:56;20.27;;;11.17;;
12770;SDS011;6449;47.666;9.160;2024-03-08T20:50:57;15.50;;;10.53;;
12770;SDS011;6449;47.666;9.160;2024-03-08T20:56:05;20.00;;;11.57;;
12770;SDS011;6449;47.666;9.160;2024-03-08T21:01:04;17.87;;;10.53;;
12770;SDS011;6449;47.666;9.160;2024-03-08T21:06:01;19.10;;;11.20;;
12770;SDS011;6449;47.666;9.160;2024-03-08T21:11:10;17.40;;;10.47;;
12770;SDS011;6449;47.666;9.160;2024-03-08T21:17:02;16.23;;;10.23;;
12770;SDS011;6449;47.666;9.160;2024-03-08T21:21:58;17.37;;;11.17;;
12770;SDS011;6449;47.666;9.160;2024-03-08T21:27:01;17.07;;;11.10;;
12770;SDS011;6449;47.666;9.160;2024-03-08T21:32:00;15.33;;;10.40;;
12770;SDS011;6449;47.666;9.160;2024-03-08T21:36:56;17.57;;;11.17;;
12770;SDS011;6449;47.666;9.160;2024-03-08T21:41:53;17.10;;;11.27;;
12770;SDS011;6449;47.666;9.160;2024-03-08T21:46:46;19.33;;;12.17;;
12770;SDS011;6449;47.666;9.160;2024-03-08T21:51:40;19.47;;;10.77;;
12770;SDS011;6449;47.666;9.160;2024-03-08T21:56:37;19.97;;;11.33;;
12770;SDS011;6449;47.666;9.160;2024-03-08T22:01:32;18.40;;;11.47;;
12770;SDS011;6449;47.666;9.160;2024-03-08T22:06:26;17.13;;;11.00;;
12770;SDS011;6449;47.666;9.160;2024-03-08T22:11:19;16.93;;;10.10;;
12770;SDS011;6449;47.666;9.160;2024-03-08T22:16:14;17.40;;;11.17;;
12770;SDS011;6449;47.666;9.160;2024-03-08T22:21:08;16.43;;;10.70;;
12770;SDS011;6449;47.666;9.160;2024-03-08T22:26:03;16.23;;;10.53;;
12770;SDS011;6449;47.666;9.160;2024-03-08T22:31:01;17.50;;;10.03;;
12770;SDS011;6449;47.666;9.160;2024-03-08T22:35:57;15.30;;;10.27;;
12770;SDS011;6449;47.666;9.160;2024-03-08T22:40:52;16.37;;;9.60;;
12770;SDS011;6449;47.666;9.160;2024-03-08T22:45:46;19.23;;;9.57;;
12770;SDS011;6449;47.666;9.160;2024-03-08T22:50:40;15.60;;;10.13;;
12770;SDS011;6449;47.666;9.160;2024-03-08T22:55:33;18.30;;;9.87;;
12770;SDS011;6449;47.666;9.160;2024-03-08T23:00:28;16.73;;;9.90;;
12770;SDS011;6449;47.666;9.160;2024-03-08T23:05:47;18.90;;;10.10;;
12770;SDS011;6449;47.666;9.160;2024-03-08T23:10:40;16.17;;;9.83;;
12770;SDS011;6449;47.666;9.160;2024-03-08T23:15:35;18.30;;;10.57;;
12770;SDS011;6449;47.666;9.160;2024-03-08T23:20:32;16.07;;;9.90;;
12770;SDS011;6449;47.666;9.160;2024-03-08T23:25:26;18.27;;;10.63;;
12770;SDS011;6449;47.666;9.160;2024-03-08T23:30:20;17.03;;;10.67;;
12770;SDS011;6449;47.666;9.160;2024-03-08T23:35:16;16.80;;;9.73;;
12770;SDS011;6449;47.666;9.160;2024-03-08T23:40:10;18.20;;;10.67;;
12770;SDS011;6449;47.666;9.160;2024-03-08T23:45:06;18.83;;;10.70;;
12770;SDS011;6449;47.666;9.160;2024-03-08T23:50:03;18.23;;;11.00;;
12770;SDS011;6449;47.666;9.160;2024-03-08T23:55:00;20.57;;;11.80;;
12770;SDS011;6449;47.666;9.160;2024-03-08T23:59:55;17.47;;;11.87;;
